Time;durP1;ratioP1;P1;durP2;ratioP2;P2;SDS_P1;SDS_P2;PMS_P1;PMS_P2;Temp;Humidity;BMP_temperature;BMP_pressure;BME280_temperature;BME280_humidity;BME280_pressure;Samples;Min_cycle;Max_cycle;Signal;HPM_P1;HPM_P2
2022/04/11 00:04:03;;;;;;;12.77;7.05;;;;;;;5.58;80.63;101906.06;10422178;28;20044;-74
2022/04/11 00:09:03;;;;;;;6.53;5.40;;;;;;;5.69;79.91;101899.72;10423799;28;20107;-74
2022/04/11 00:14:04;;;;;;;9.38;6.35;;;;;;;5.75;79.39;101894.63;10423713;28;20499;-73
2022/04/11 00:19:04;;;;;;;13.52;6.95;;;;;;;5.74;80.26;101895.63;10422307;28;20036;-73
2022/04/11 00:24:05;;;;;;;10.82;5.78;;;;;;;5.84;79.59;101895.63;10425942;28;20034;-74
2022/04/11 00:29:05;;;;;;;19.08;7.10;;;;;;;5.87;79.92;101894.47;10410979;28;20124;-74
2022/04/11 00:34:06;;;;;;;13.68;7.10;;;;;;;5.93;78.88;101896.63;10429675;28;20030;-74
2022/04/11 00:39:06;;;;;;;7.90;7.10;;;;;;;5.93;78.27;101899.31;10427491;28;20452;-74
2022/04/11 00:44:07;;;;;;;9.10;6.53;;;;;;;5.88;78.84;101894.34;10425432;28;20049;-73
2022/04/11 00:49:08;;;;;;;13.73;6.45;;;;;;;5.81;78.31;101882.47;10424364;28;20037;-74
2022/04/11 00:54:08;;;;;;;7.95;6.85;;;;;;;5.77;78.89;101884.56;10425094;28;20052;-73
2022/04/11 01:22:55;;;;;;;9.65;7.72;;;;;;;5.54;81.00;101867.91;10587073;23;20054;-74
2022/04/11 01:27:56;;;;;;;8.15;6.13;;;;;;;5.48;81.43;101872.97;10350718;28;20069;-74
2022/04/11 01:32:56;;;;;;;12.05;7.72;;;;;;;5.44;81.66;101867.03;10334989;28;20057;-74
2022/04/11 01:37:57;;;;;;;9.02;6.97;;;;;;;5.38;82.30;101861.38;10337237;28;20037;-74
2022/04/11 01:42:57;;;;;;;12.27;6.75;;;;;;;5.39;80.36;101863.06;10350809;28;20038;-74
2022/04/11 01:47:57;;;;;;;7.07;6.35;;;;;;;5.29;81.40;101863.91;10334532;28;20370;-74
2022/04/11 01:53:08;;;;;;;15.75;8.30;;;;;;;5.23;81.18;101859.13;10335306;28;20343;-74
2022/04/11 01:58:08;;;;;;;13.25;7.80;;;;;;;5.14;81.91;101857.25;10316589;28;20033;-74
2022/04/11 02:03:09;;;;;;;13.27;8.55;;;;;;;5.08;81.34;101849.75;10333368;28;20062;-75
2022/04/11 02:08:10;;;;;;;8.40;6.97;;;;;;;5.07;80.18;101858.78;10334413;28;20105;-74
2022/04/11 02:13:10;;;;;;;11.20;7.40;;;;;;;4.98;79.57;101859.59;10349539;28;20521;-74
2022/04/11 02:18:11;;;;;;;12.57;7.90;;;;;;;4.87;80.49;101853.38;10334737;28;20081;-74
2022/04/11 02:23:11;;;;;;;9.10;7.18;;;;;;;4.78;80.81;101848.81;10333368;28;20077;-74
2022/04/11 02:28:12;;;;;;;9.23;6.88;;;;;;;4.74;79.57;101855.44;10335191;28;20034;-74
2022/04/11 02:33:12;;;;;;;9.90;8.70;;;;;;;4.65;80.12;101857.09;10334852;28;20439;-74
2022/04/11 02:38:13;;;;;;;12.88;8.80;;;;;;;4.67;81.15;101856.97;10337587;28;20045;-74
2022/04/11 02:43:14;;;;;;;21.58;8.18;;;;;;;4.64;81.32;101862.63;10340893;28;20041;-74
2022/04/11 02:48:14;;;;;;;11.98;7.28;;;;;;;4.64;82.64;101851.88;10356576;28;20042;-74
2022/04/11 02:53:15;;;;;;;10.15;7.85;;;;;;;4.63;82.65;101855.56;10355854;28;20035;-74
2022/04/11 02:58:15;;;;;;;14.30;7.57;;;;;;;4.60;83.65;101851.31;10341472;28;20065;-74
2022/04/11 03:03:15;;;;;;;14.38;9.18;;;;;;;4.53;83.36;101842.13;10340880;28;20125;-74
2022/04/11 03:08:16;;;;;;;12.88;8.93;;;;;;;4.50;81.75;101841.50;10339480;28;20031;-74
2022/04/11 03:13:16;;;;;;;10.23;8.07;;;;;;;4.39;83.41;101829.91;10359967;28;20057;-74
2022/04/11 03:18:16;;;;;;;15.27;9.05;;;;;;;4.36;83.43;101832.84;10342374;28;20524;-74
2022/04/11 03:23:17;;;;;;;10.25;8.45;;;;;;;4.27;83.19;101833.66;10355029;28;20081;-74
2022/04/11 03:28:17;;;;;;;16.67;8.32;;;;;;;4.16;85.93;101823.03;10355925;28;20093;-74
2022/04/11 03:33:18;;;;;;;23.65;9.77;;;;;;;4.22;85.20;101824.31;10341316;28;20073;-74
2022/04/11 03:38:18;;;;;;;11.45;8.88;;;;;;;4.18;82.91;101813.03;10338261;28;20030;-74
2022/04/11 03:43:18;;;;;;;12.35;9.63;;;;;;;4.10;83.10;101816.34;10353853;28;20022;-74
2022/04/11 03:48:19;;;;;;;11.77;8.38;;;;;;;4.09;83.42;101814.66;10353802;28;20374;-74
2022/04/11 03:53:19;;;;;;;10.43;8.80;;;;;;;4.07;83.76;101813.94;10340197;28;20026;-74
2022/04/11 03:58:20;;;;;;;14.88;10.18;;;;;;;4.06;82.62;101819.44;10339850;28;20442;-74
2022/04/11 04:03:20;;;;;;;19.67;9.68;;;;;;;3.99;82.11;101816.44;10337911;28;20053;-74
2022/04/11 04:08:21;;;;;;;16.02;10.60;;;;;;;3.91;83.18;101811.72;10338614;28;20117;-73
2022/04/11 04:13:22;;;;;;;16.48;11.38;;;;;;;3.90;84.31;101812.72;10353024;28;20374;-74
2022/04/11 04:18:22;;;;;;;17.83;9.30;;;;;;;3.91;87.34;101816.25;10353978;28;20045;-74
2022/04/11 04:23:22;;;;;;;16.48;10.13;;;;;;;3.93;87.28;101800.91;10337847;28;20459;-74
2022/04/11 04:28:23;;;;;;;15.07;9.45;;;;;;;3.88;88.44;101795.91;10337513;28;20039;-73
2022/04/11 04:33:23;;;;;;;13.35;9.25;;;;;;;3.79;89.48;101793.16;10353578;28;20085;-74
2022/04/11 04:38:23;;;;;;;17.52;12.20;;;;;;;3.71;90.92;101800.03;10336875;28;20038;-74
2022/04/11 04:43:24;;;;;;;16.35;10.48;;;;;;;3.77;90.06;101798.69;10352355;28;20421;-74
2022/04/11 04:48:24;;;;;;;26.98;11.50;;;;;;;3.77;89.36;101793.31;10336521;28;20417;-74
2022/04/11 04:53:25;;;;;;;25.58;12.02;;;;;;;3.69;90.32;101787.75;10338298;28;20034;-75
2022/04/11 04:58:25;;;;;;;14.32;11.63;;;;;;;3.62;92.23;101802.66;10337490;28;20070;-74
2022/04/11 05:03:26;;;;;;;19.73;12.20;;;;;;;3.61;92.70;101799.13;10336470;28;20100;-72
2022/04/11 05:08:26;;;;;;;14.43;12.57;;;;;;;3.70;92.73;101792.13;10336283;28;20038;-75
2022/04/11 05:13:27;;;;;;;23.30;11.10;;;;;;;3.82;90.31;101798.28;10334212;28;20046;-75
2022/04/11 05:18:27;;;;;;;14.82;12.45;;;;;;;3.85;90.22;101801.53;10336524;28;20038;-74
2022/04/11 05:23:27;;;;;;;14.25;12.75;;;;;;;3.90;90.20;101796.63;10334820;28;20089;-74
2022/04/11 05:28:28;;;;;;;15.77;10.45;;;;;;;3.97;91.20;101805.84;10334829;28;20046;-74
2022/04/11 05:33:28;;;;;;;25.58;12.23;;;;;;;4.20;90.00;101808.34;10335468;28;20034;-74
2022/04/11 05:38:29;;;;;;;14.48;10.57;;;;;;;4.34;89.53;101797.28;10334567;28;20058;-74
2022/04/11 05:43:29;;;;;;;18.10;12.45;;;;;;;4.50;90.05;101790.53;10334847;28;20045;-73
2022/04/11 05:48:30;;;;;;;14.50;12.55;;;;;;;4.64;89.87;101798.22;10333744;28;20085;-74
2022/04/11 05:53:31;;;;;;;18.13;13.52;;;;;;;5.22;88.74;101798.31;10336151;28;20046;-74
2022/04/11 05:58:31;;;;;;;21.85;13.60;;;;;;;6.38;85.56;101796.44;10336691;28;20045;-74
2022/04/11 06:03:31;;;;;;;15.02;11.65;;;;;;;7.13;80.47;101784.53;10334267;28;20537;-74
2022/04/11 06:08:32;;;;;;;17.60;11.75;;;;;;;7.96;78.57;101797.69;10334295;28;20387;-74
2022/04/11 06:13:32;;;;;;;13.35;8.57;;;;;;;8.55;75.51;101792.47;10337633;28;20034;-74
2022/04/11 06:18:32;;;;;;;15.30;10.50;;;;;;;8.92;73.17;101792.09;10342075;28;20038;-74
2022/04/11 06:23:33;;;;;;;13.05;9.75;;;;;;;9.00;69.98;101789.44;10342330;28;20058;-74
2022/04/11 06:28:33;;;;;;;12.80;10.15;;;;;;;9.16;68.60;101788.63;10342485;28;20199;-74
2022/04/11 06:33:35;;;;;;;13.57;9.77;;;;;;;9.55;68.93;101788.81;10342615;28;20101;-74
2022/04/11 06:38:36;;;;;;;12.27;8.73;;;;;;;9.96;66.81;101785.22;10356948;28;20435;-74
2022/04/11 06:43:36;;;;;;;14.85;9.45;;;;;;;10.41;64.64;101781.91;10308177;28;20077;-74
2022/04/11 06:48:37;;;;;;;9.93;8.85;;;;;;;10.84;63.42;101776.97;10339170;28;20498;-74
2022/04/11 06:53:37;;;;;;;14.20;9.20;;;;;;;11.09;60.88;101782.25;10340862;28;20046;-74
2022/04/11 06:58:37;;;;;;;13.32;9.30;;;;;;;11.55;60.06;101769.53;10340266;28;20037;-74
2022/04/11 07:03:38;;;;;;;14.18;8.60;;;;;;;11.82;58.75;101765.38;10357018;28;20041;-75
2022/04/11 07:08:38;;;;;;;10.55;8.40;;;;;;;12.15;58.19;101762.34;10340605;28;20467;-75
2022/04/11 07:13:39;;;;;;;11.93;8.93;;;;;;;12.79;56.44;101762.59;10355284;28;20041;-75
2022/04/11 07:18:39;;;;;;;14.13;8.98;;;;;;;13.48;55.56;101758.50;10339786;28;20117;-74
2022/04/11 07:23:39;;;;;;;17.70;8.38;;;;;;;13.64;52.32;101760.94;10338586;28;20050;-74
2022/04/11 07:28:40;;;;;;;12.82;9.55;;;;;;;13.47;54.63;101752.22;10340026;28;20065;-75
2022/04/11 07:33:40;;;;;;;9.57;7.38;;;;;;;13.88;53.58;101748.78;10339347;28;20046;-75
2022/04/11 07:38:41;;;;;;;14.27;6.90;;;;;;;14.25;49.58;101746.69;10339406;28;20034;-75
2022/04/11 07:43:41;;;;;;;14.30;6.88;;;;;;;14.09;49.72;101738.84;10338544;28;20463;-75
2022/04/11 07:48:41;;;;;;;8.73;7.75;;;;;;;13.78;49.82;101728.38;10339344;28;20060;-75
2022/04/11 07:53:42;;;;;;;9.95;7.28;;;;;;;14.39;49.32;101725.84;10338890;28;20128;-74
2022/04/11 07:58:42;;;;;;;7.80;6.65;;;;;;;14.95;47.47;101720.16;10339297;28;20038;-75
2022/04/11 08:03:44;;;;;;;6.20;5.60;;;;;;;15.52;48.94;101718.75;10338184;28;20137;-75
2022/04/11 08:08:46;;;;;;;11.00;7.05;;;;;;;16.13;44.18;101714.06;10337227;28;20035;-75
2022/04/11 08:13:47;;;;;;;6.47;5.88;;;;;;;16.11;42.40;101718.91;10320728;28;20103;-75
2022/04/11 08:18:48;;;;;;;10.45;6.53;;;;;;;16.03;42.40;101709.91;10336661;28;20030;-75
2022/04/11 08:23:49;;;;;;;11.80;5.18;;;;;;;15.92;42.14;101707.84;10352603;28;20465;-74
2022/04/11 08:28:50;;;;;;;9.35;5.60;;;;;;;16.63;43.32;101701.47;10337116;28;20113;-75
2022/04/11 08:33:51;;;;;;;5.50;5.00;;;;;;;17.09;42.09;101703.13;10353265;28;20038;-75
2022/04/11 08:38:52;;;;;;;6.50;4.32;;;;;;;17.49;39.22;101697.34;10303990;28;20042;-75
2022/04/11 08:43:52;;;;;;;7.68;3.67;;;;;;;17.05;37.37;101712.84;10352294;28;20080;-75
2022/04/11 08:48:53;;;;;;;5.85;4.97;;;;;;;17.38;36.58;101693.41;10303550;28;20092;-75
2022/04/11 08:53:53;;;;;;;6.75;5.05;;;;;;;17.47;35.46;101690.41;10338415;28;20089;-75
2022/04/11 08:58:54;;;;;;;4.13;3.78;;;;;;;17.48;35.63;101684.69;10335879;28;20037;-75
2022/04/11 09:03:54;;;;;;;6.55;4.18;;;;;;;17.64;35.12;101680.53;10318599;28;20117;-75
2022/04/11 09:08:55;;;;;;;7.97;4.45;;;;;;;18.08;33.73;101679.47;10334389;28;20042;-75
2022/04/11 09:13:55;;;;;;;5.28;3.13;;;;;;;17.83;32.96;101668.56;10336104;28;20109;-75
2022/04/11 09:18:56;;;;;;;5.05;2.72;;;;;;;17.57;33.51;101666.09;10351194;28;20040;-75
2022/04/11 09:24:13;;;;;;;4.50;4.20;;;;;;;17.87;33.31;101655.28;10335709;28;20464;-75
2022/04/11 09:29:15;;;;;;;;;;;;;;;18.17;31.74;101660.00;10352458;28;20033;-75
2022/04/11 09:34:18;;;;;;;5.68;3.65;;;;;;;17.44;33.70;101659.66;10335911;28;20368;-76
2022/04/11 09:39:21;;;;;;;9.77;4.10;;;;;;;17.92;31.87;101658.16;10336317;28;20429;-75
2022/04/11 09:44:39;;;;;;;2.92;2.65;;;;;;;17.93;31.38;101665.31;10336638;28;20049;-76
2022/04/11 09:49:39;;;;;;;7.60;4.47;;;;;;;18.27;32.82;101644.66;10334656;28;20042;-75
2022/04/11 09:54:44;;;;;;;8.50;4.30;;;;;;;18.27;31.51;101649.31;10335144;28;20041;-76
2022/04/11 09:59:45;;;;;;;7.15;3.72;;;;;;;18.46;31.43;101633.69;10333567;28;20026;-75
2022/04/11 10:04:46;;;;;;;7.93;3.83;;;;;;;19.02;30.79;101657.16;10318293;28;20084;-76
2022/04/11 10:09:46;;;;;;;4.78;3.58;;;;;;;18.64;30.51;101644.59;10319167;28;20034;-75
2022/04/11 10:14:47;;;;;;;8.73;3.63;;;;;;;18.73;30.83;101647.88;10333384;28;20034;-76
2022/04/11 10:19:48;;;;;;;10.25;3.88;;;;;;;18.19;32.09;101636.78;10336194;28;20042;-75
2022/04/11 10:25:02;;;;;;;3.95;3.38;;;;;;;18.33;31.76;101620.97;10334044;28;20105;-76
2022/04/11 10:30:04;;;;;;;6.18;3.53;;;;;;;18.03;32.78;101612.72;10334364;28;20134;-75
2022/04/11 10:35:05;;;;;;;3.22;3.03;;;;;;;17.81;31.03;101609.63;10316264;28;20031;-76
2022/04/11 10:40:19;;;;;;;10.40;4.93;;;;;;;18.22;31.10;101608.03;10334193;28;20037;-75
2022/04/11 10:45:40;;;;;;;6.97;4.40;;;;;;;18.23;32.46;101596.03;10333468;28;20022;-75
2022/04/11 10:50:42;;;;;;;18.17;5.40;;;;;;;17.65;33.53;101594.59;10335375;28;20038;-74
2022/04/11 10:55:55;;;;;;;11.68;5.03;;;;;;;17.30;32.24;101580.63;10299642;28;20114;-75
2022/04/11 11:00:56;;;;;;;7.10;3.67;;;;;;;16.85;32.81;101584.41;10338189;28;20038;-75
2022/04/11 11:05:56;;;;;;;6.78;3.72;;;;;;;17.07;34.51;101567.56;10341269;28;20529;-75
2022/04/11 11:11:01;;;;;;;6.65;4.43;;;;;;;17.52;32.35;101565.44;10339410;28;20485;-75
2022/04/11 11:16:07;;;;;;;7.05;3.75;;;;;;;17.04;33.29;101537.91;10340828;28;20060;-75
2022/04/11 11:21:08;;;;;;;11.20;4.60;;;;;;;16.37;34.65;101543.91;10341348;28;20529;-75
2022/04/11 11:26:12;;;;;;;11.68;4.95;;;;;;;16.17;35.51;101552.19;10355698;28;20112;-75
2022/04/11 11:31:13;;;;;;;7.32;4.32;;;;;;;16.43;34.73;101517.56;10355472;28;20038;-75
2022/04/11 11:36:13;;;;;;;4.07;3.45;;;;;;;16.04;34.57;101520.31;10339531;28;20074;-75
2022/04/11 11:41:15;;;;;;;5.35;3.70;;;;;;;16.34;35.38;101525.22;10338387;28;20030;-75
2022/04/11 11:46:15;;;;;;;5.40;4.70;;;;;;;16.25;33.89;101501.94;10339158;28;20033;-75
2022/04/11 11:51:16;;;;;;;9.88;4.85;;;;;;;16.86;35.30;101517.66;10338060;28;20041;-75
2022/04/11 11:56:16;;;;;;;7.55;4.82;;;;;;;17.45;34.98;101504.44;10339176;28;20038;-75
2022/04/11 12:01:16;;;;;;;4.53;4.20;;;;;;;17.73;34.84;101505.78;10336804;28;20121;-75
2022/04/11 12:06:26;;;;;;;7.50;4.60;;;;;;;17.70;35.36;101500.75;10354554;28;20066;-75
2022/04/11 12:11:28;;;;;;;6.07;4.80;;;;;;;16.91;34.92;101471.34;10353974;28;20142;-75
2022/04/11 12:16:29;;;;;;;5.55;4.97;;;;;;;16.35;36.16;101488.59;10337239;28;20146;-75
2022/04/11 12:21:33;;;;;;;6.43;5.82;;;;;;;16.77;35.16;101505.34;10338083;28;20527;-75
2022/04/11 12:26:45;;;;;;;5.97;5.38;;;;;;;17.04;36.29;101481.31;10336485;28;20524;-75
2022/04/11 12:31:58;;;;;;;15.50;5.20;;;;;;;17.00;36.26;101495.66;10353093;28;20038;-75
2022/04/11 12:37:01;;;;;;;13.98;4.88;;;;;;;17.10;35.40;101493.22;10337729;28;20418;-75
2022/04/11 12:42:02;;;;;;;4.43;4.00;;;;;;;16.60;35.62;101485.06;10351737;28;20040;-75
2022/04/11 12:47:21;;;;;;;4.68;4.28;;;;;;;16.26;36.20;101470.81;10323029;28;20489;-75
2022/04/11 12:52:22;;;;;;;6.93;5.65;;;;;;;16.22;36.83;101473.16;10341288;28;20475;-75
2022/04/11 12:57:27;;;;;;;7.65;4.72;;;;;;;16.22;36.46;101459.47;10337848;28;20042;-75
2022/04/11 13:02:28;;;;;;;8.93;5.82;;;;;;;16.16;37.30;101448.59;10319095;28;20381;-75
2022/04/11 13:07:28;;;;;;;13.73;5.53;;;;;;;16.25;36.91;101447.28;10351688;28;20118;-75
2022/04/11 13:12:29;;;;;;;5.95;5.25;;;;;;;16.27;37.28;101428.75;10336219;28;20039;-75
2022/04/11 13:22:48;;;;;;;10.85;5.72;;;;;;;16.42;36.85;101406.56;10332907;28;20058;-75
2022/04/11 13:27:49;;;;;;;7.20;5.30;;;;;;;16.64;35.53;101424.22;10335160;28;20035;-75
2022/04/11 13:32:50;;;;;;;6.97;5.60;;;;;;;16.79;36.10;101403.94;10316943;28;20130;-75
2022/04/11 13:37:50;;;;;;;7.00;5.97;;;;;;;16.47;36.09;101391.16;10349894;28;20128;-75
2022/04/11 13:42:52;;;;;;;5.82;5.28;;;;;;;16.55;36.34;101370.06;10350344;28;20057;-75
2022/04/11 13:47:52;;;;;;;5.50;5.10;;;;;;;16.25;37.07;101363.38;10334490;28;20049;-75
2022/04/11 13:52:53;;;;;;;10.18;5.88;;;;;;;16.10;36.95;101364.78;10335197;28;20050;-75
2022/04/11 13:57:53;;;;;;;6.90;4.95;;;;;;;16.21;36.81;101340.31;10354137;28;20407;-75
2022/04/11 14:02:54;;;;;;;11.70;5.00;;;;;;;16.25;36.70;101324.31;10334217;28;20093;-75
2022/04/11 14:07:55;;;;;;;7.90;6.28;;;;;;;16.21;35.86;101328.56;10350389;28;20038;-75
2022/04/11 14:12:55;;;;;;;6.97;5.10;;;;;;;15.95;36.35;101318.66;10335457;28;20026;-75
2022/04/11 14:17:56;;;;;;;8.18;5.00;;;;;;;15.76;36.04;101293.19;10351353;28;20046;-75
2022/04/11 14:22:56;;;;;;;7.30;6.00;;;;;;;15.69;36.85;101303.34;10316201;28;20050;-75
2022/04/11 14:27:58;;;;;;;10.32;5.95;;;;;;;15.81;36.50;101290.63;10333385;28;20478;-75
2022/04/11 14:32:59;;;;;;;7.70;4.75;;;;;;;15.69;36.80;101315.09;10319013;28;20054;-75
2022/04/11 14:37:59;;;;;;;8.63;6.47;;;;;;;15.68;37.05;101302.50;10323400;28;20045;-75
2022/04/11 14:43:01;;;;;;;13.18;6.10;;;;;;;15.54;37.12;101290.81;10358542;28;20026;-75
2022/04/11 14:48:01;;;;;;;12.77;6.18;;;;;;;15.59;37.13;101290.97;10341531;28;20034;-75
2022/04/11 14:53:04;;;;;;;8.65;6.43;;;;;;;15.59;37.70;101288.25;10323405;28;20030;-75
2022/04/11 14:58:06;;;;;;;6.78;5.65;;;;;;;15.51;37.63;101263.13;10323731;28;20034;-75
2022/04/11 15:03:06;;;;;;;7.15;6.20;;;;;;;15.29;37.84;101270.84;10355582;28;20077;-74
2022/04/11 15:08:07;;;;;;;9.63;5.43;;;;;;;15.20;39.06;101263.97;10340462;28;20135;-75
2022/04/11 15:13:09;;;;;;;8.07;6.47;;;;;;;15.19;38.67;101270.47;10341937;28;20034;-75
2022/04/11 15:18:09;;;;;;;8.63;6.03;;;;;;;15.05;38.97;101266.97;10340072;28;20390;-75
2022/04/11 15:23:10;;;;;;;14.75;6.45;;;;;;;14.93;39.54;101261.38;10338750;28;20065;-75
2022/04/11 15:28:10;;;;;;;9.40;5.95;;;;;;;14.86;39.88;101246.94;10324183;28;20188;-75
2022/04/11 15:33:11;;;;;;;6.82;5.47;;;;;;;14.80;40.14;101228.72;10338318;28;20549;-75
2022/04/11 15:38:11;;;;;;;6.53;5.80;;;;;;;14.74;39.72;101230.44;10322299;28;20042;-75
2022/04/11 15:43:14;;;;;;;5.50;4.97;;;;;;;14.58;39.70;101204.53;10338315;28;20034;-75
2022/04/11 15:48:14;;;;;;;5.97;5.43;;;;;;;14.61;38.83;101197.78;10338086;28;20035;-75
2022/04/11 15:53:14;;;;;;;14.43;5.63;;;;;;;14.56;39.00;101193.00;10337520;28;20034;-74
2022/04/11 15:58:15;;;;;;;6.25;5.65;;;;;;;14.52;39.68;101210.84;10321319;28;20050;-75
2022/04/11 16:03:15;;;;;;;8.80;5.25;;;;;;;14.40;40.77;101182.56;10305103;28;20527;-75
2022/04/11 16:08:16;;;;;;;7.53;6.22;;;;;;;14.39;39.80;101200.78;10304768;28;20482;-75
2022/04/11 16:13:16;;;;;;;8.10;6.60;;;;;;;14.38;40.40;101181.91;10340688;28;20046;-75
2022/04/11 16:18:17;;;;;;;9.00;6.75;;;;;;;14.39;41.55;101170.81;10336884;28;20493;-75
2022/04/11 16:23:18;;;;;;;6.15;5.55;;;;;;;14.34;42.45;101180.69;10304348;28;20525;-75
2022/04/11 16:28:18;;;;;;;6.13;5.57;;;;;;;14.32;41.11;101204.56;10320039;28;20062;-75
2022/04/11 16:33:19;;;;;;;9.35;6.63;;;;;;;14.18;41.33;101173.81;10305095;28;20084;-74
2022/04/11 16:38:19;;;;;;;7.22;6.53;;;;;;;14.15;41.89;101174.25;10338304;28;20046;-74
2022/04/11 16:43:20;;;;;;;11.63;7.03;;;;;;;14.09;43.27;101167.78;10340808;28;20031;-75
2022/04/11 16:48:20;;;;;;;13.18;5.45;;;;;;;14.14;43.27;101176.16;10337792;28;20037;-75
2022/04/11 16:53:21;;;;;;;6.63;5.90;;;;;;;14.07;42.97;101185.38;10337650;28;20054;-75
2022/04/11 16:58:22;;;;;;;8.85;5.78;;;;;;;14.05;42.90;101166.53;10320540;28;20136;-75
2022/04/11 17:03:22;;;;;;;9.57;6.10;;;;;;;14.01;44.08;101184.34;10336246;28;20088;-74
2022/04/11 17:08:23;;;;;;;6.03;5.13;;;;;;;13.94;43.74;101186.22;10303290;28;20030;-75
2022/04/11 17:13:24;;;;;;;7.53;5.35;;;;;;;13.76;44.47;101167.88;10321169;28;20050;-74
2022/04/11 17:18:30;;;;;;;6.03;5.40;;;;;;;13.68;45.35;101160.75;10334130;28;20550;-75
2022/04/11 17:23:32;;;;;;;5.85;5.10;;;;;;;13.58;45.59;101163.06;10335324;28;20077;-75
2022/04/11 17:28:32;;;;;;;9.50;5.50;;;;;;;13.50;45.93;101163.28;10334035;28;20056;-75
2022/04/11 17:33:33;;;;;;;9.27;6.28;;;;;;;13.38;45.95;101165.78;10335737;28;20037;-75
2022/04/11 17:38:33;;;;;;;9.90;4.97;;;;;;;13.29;46.54;101171.66;10334965;28;20503;-74
2022/04/11 17:43:34;;;;;;;5.80;4.60;;;;;;;13.22;46.67;101177.06;10334274;28;20108;-74
2022/04/11 17:48:34;;;;;;;5.55;5.05;;;;;;;13.15;46.66;101185.22;10333494;28;20409;-75
2022/04/11 17:53:35;;;;;;;7.72;5.82;;;;;;;13.04;47.59;101188.53;10335015;28;20093;-75
2022/04/11 17:58:35;;;;;;;5.25;4.75;;;;;;;12.96;48.21;101191.47;10333176;28;20026;-74
2022/04/11 18:03:35;;;;;;;5.57;4.78;;;;;;;12.87;48.51;101190.81;10317284;28;20030;-75
2022/04/11 18:08:36;;;;;;;6.00;4.75;;;;;;;12.77;48.77;101184.94;10338218;28;20046;-75
2022/04/11 18:13:36;;;;;;;5.63;5.05;;;;;;;12.70;49.25;101190.34;10358321;28;20026;-75
2022/04/11 18:18:37;;;;;;;6.88;5.78;;;;;;;12.62;50.28;101186.97;10359521;28;20038;-75
2022/04/11 18:23:38;;;;;;;8.23;5.28;;;;;;;12.52;50.93;101193.63;10342435;28;20506;-74
2022/04/11 18:33:57;;;;;;;6.97;4.82;;;;;;;12.21;51.74;101204.97;10342300;28;20378;-75
2022/04/11 18:38:59;;;;;;;9.48;6.15;;;;;;;12.15;52.77;101203.06;10343298;28;20038;-76
2022/04/11 18:44:00;;;;;;;11.50;6.93;;;;;;;12.05;53.36;101197.16;10340389;28;20053;-75
2022/04/11 18:49:00;;;;;;;10.18;6.18;;;;;;;11.97;53.80;101200.06;10340578;28;20077;-75
2022/04/11 18:54:01;;;;;;;14.23;6.10;;;;;;;11.90;54.44;101200.00;10340571;28;20364;-74
2022/04/11 18:59:04;;;;;;;8.93;6.80;;;;;;;11.88;54.33;101201.25;10341329;28;20034;-74
2022/04/11 19:04:06;;;;;;;6.78;5.95;;;;;;;11.79;54.78;101201.34;10340704;28;20031;-73
2022/04/11 19:09:07;;;;;;;6.55;5.10;;;;;;;11.70;56.12;101194.38;10341498;28;20038;-74
2022/04/11 19:14:07;;;;;;;8.77;6.47;;;;;;;11.64;56.50;101192.47;10339156;28;20430;-74
2022/04/11 19:19:07;;;;;;;11.13;5.57;;;;;;;11.52;57.81;101188.63;10341774;28;20128;-75
2022/04/11 19:24:08;;;;;;;7.35;5.85;;;;;;;11.47;58.66;101188.38;10340202;28;20145;-75
2022/04/11 19:29:08;;;;;;;13.77;6.13;;;;;;;11.44;59.42;101183.34;10340543;28;20038;-75
2022/04/11 19:34:09;;;;;;;7.72;6.72;;;;;;;11.45;59.08;101185.84;10338189;28;20061;-74
2022/04/11 19:39:09;;;;;;;8.25;7.32;;;;;;;11.39;59.30;101186.63;10322251;28;20073;-74
2022/04/11 19:44:10;;;;;;;7.25;6.55;;;;;;;11.36;59.27;101187.88;10322652;28;20049;-74
2022/04/11 19:54:29;;;;;;;9.93;6.43;;;;;;;11.30;58.82;101166.97;10338505;28;20046;-74
2022/04/11 19:59:30;;;;;;;9.63;8.63;;;;;;;11.31;59.01;101176.78;10337461;28;20030;-74
2022/04/11 20:04:30;;;;;;;9.27;6.78;;;;;;;11.30;58.65;101172.41;10338357;28;20105;-74
2022/04/11 20:09:32;;;;;;;16.17;7.47;;;;;;;11.35;57.48;101183.47;10340188;28;20034;-75
2022/04/11 20:14:32;;;;;;;8.27;6.32;;;;;;;11.36;57.88;101159.94;10337612;28;20057;-77
2022/04/11 20:19:33;;;;;;;6.75;6.05;;;;;;;11.37;57.17;101159.72;10353395;28;20092;-75
2022/04/11 20:24:34;;;;;;;9.95;6.38;;;;;;;11.34;57.29;101162.00;10352394;28;20518;-76
2022/04/11 20:29:34;;;;;;;8.98;7.15;;;;;;;11.35;57.85;101147.41;10336174;28;20161;-73
2022/04/11 20:34:35;;;;;;;9.65;7.30;;;;;;;11.27;58.40;101140.25;10337476;28;20478;-75
2022/04/11 20:39:36;;;;;;;9.68;6.88;;;;;;;11.23;58.34;101144.41;10339612;28;20042;-75
2022/04/11 20:44:36;;;;;;;7.13;6.63;;;;;;;11.13;58.82;101138.44;10352070;28;20042;-75
2022/04/11 20:49:36;;;;;;;6.50;5.78;;;;;;;11.04;59.10;101136.91;10337344;28;20045;-74
2022/04/11 20:59:56;;;;;;;8.23;6.50;;;;;;;10.82;60.95;101142.34;10338028;28;20077;-75
2022/04/11 21:04:56;;;;;;;8.38;7.32;;;;;;;10.70;61.32;101138.47;10337300;28;20073;-73
2022/04/11 21:09:56;;;;;;;11.90;8.40;;;;;;;10.66;61.86;101138.03;10337212;28;20045;-74
2022/04/11 21:14:57;;;;;;;8.48;7.10;;;;;;;10.57;62.54;101138.34;10334588;28;20030;-74
2022/04/11 21:19:57;;;;;;;9.55;5.93;;;;;;;10.54;62.90;101138.72;10335248;28;20065;-75
2022/04/11 21:24:58;;;;;;;8.93;7.75;;;;;;;10.43;63.29;101121.94;10350485;28;20391;-75
2022/04/11 21:29:58;;;;;;;8.55;7.65;;;;;;;10.35;64.38;101119.34;10318006;28;20549;-74
2022/04/11 21:34:58;;;;;;;13.80;8.57;;;;;;;10.32;64.52;101118.88;10319183;28;20088;-75
2022/04/11 21:39:59;;;;;;;16.55;9.70;;;;;;;10.30;64.60;101116.34;10335217;28;20434;-75
2022/04/11 21:44:59;;;;;;;10.40;8.45;;;;;;;10.28;64.65;101113.03;10335688;28;20038;-75
2022/04/11 21:50:00;;;;;;;14.35;9.27;;;;;;;10.28;64.05;101123.84;10335488;28;20035;-74
2022/04/11 21:55:00;;;;;;;9.50;7.75;;;;;;;10.19;64.82;101114.97;10333930;28;20117;-74
2022/04/11 22:00:00;;;;;;;14.50;9.25;;;;;;;10.12;65.40;101107.81;10334152;28;20065;-75
2022/04/11 22:05:01;;;;;;;10.02;7.70;;;;;;;10.04;65.27;101099.78;10351211;28;20098;-74
2022/04/11 22:10:01;;;;;;;12.73;8.98;;;;;;;10.03;65.85;101098.94;10351308;28;20046;-74
2022/04/11 22:15:02;;;;;;;9.30;7.30;;;;;;;9.99;66.00;101098.50;10349635;28;20038;-74
2022/04/11 22:20:04;;;;;;;9.40;8.05;;;;;;;9.93;65.79;101095.69;10334730;28;20035;-74
2022/04/11 22:25:08;;;;;;;10.10;7.82;;;;;;;9.91;66.32;101095.03;10333330;28;20072;-74
2022/04/11 22:30:10;;;;;;;10.88;8.68;;;;;;;9.81;66.78;101087.22;10334272;28;20474;-75
2022/04/11 22:35:12;;;;;;;9.95;8.25;;;;;;;9.81;66.68;101095.34;10348968;28;20037;-74
2022/04/11 22:40:15;;;;;;;9.63;7.30;;;;;;;9.74;67.34;101099.81;10318939;28;20125;-74
2022/04/11 22:45:15;;;;;;;12.40;8.32;;;;;;;9.74;67.53;101089.84;10317360;28;20034;-74
2022/04/11 22:50:17;;;;;;;9.57;8.48;;;;;;;9.72;67.44;101093.75;10333438;28;20041;-74
2022/04/11 22:55:17;;;;;;;13.63;7.93;;;;;;;9.68;67.43;101079.75;10354299;28;20038;-74
2022/04/11 23:00:18;;;;;;;11.13;8.75;;;;;;;9.65;67.92;101068.50;10342574;28;20387;-74
2022/04/11 23:05:19;;;;;;;9.13;8.23;;;;;;;9.62;68.18;101074.28;10356785;28;20049;-74
2022/04/11 23:10:19;;;;;;;9.73;8.38;;;;;;;9.63;68.17;101073.22;10341369;28;20061;-74
2022/04/11 23:15:24;;;;;;;12.88;8.32;;;;;;;9.63;68.44;101071.38;10339549;28;20129;-74
2022/04/11 23:20:24;;;;;;;12.57;8.27;;;;;;;9.66;67.97;101060.16;10340713;28;20406;-74
2022/04/11 23:25:26;;;;;;;9.90;7.25;;;;;;;9.72;67.24;101053.19;10338788;28;20058;-74
2022/04/11 23:30:26;;;;;;;7.43;6.75;;;;;;;9.69;67.74;101038.16;10341783;28;20038;-74
2022/04/11 23:35:27;;;;;;;11.23;7.30;;;;;;;9.68;67.49;101032.97;10338885;28;20042;-74
2022/04/11 23:45:46;;;;;;;10.75;7.68;;;;;;;9.78;66.59;101047.03;10352395;28;20042;-74
2022/04/11 23:50:47;;;;;;;13.95;8.32;;;;;;;9.80;66.55;101047.69;10338423;28;20382;-74
2022/04/11 23:55:47;;;;;;;9.07;7.55;;;;;;;9.74;66.62;101045.72;10354237;28;20042;-74
